createdAt,value
2018-04-15T00:02:12.117Z,37.13
2018-04-15T00:04:38.353Z,33.03
2018-04-15T00:07:04.589Z,37.83
2018-04-15T00:09:31.571Z,38.33
2018-04-15T00:11:57.818Z,34.03
2018-04-15T00:14:24.079Z,36.50
2018-04-15T00:16:50.365Z,36.40
2018-04-15T00:19:17.332Z,36.00
2018-04-15T00:21:44.303Z,36.60
2018-04-15T00:24:10.563Z,34.70
2018-04-15T00:26:36.842Z,39.67
2018-04-15T00:29:04.588Z,43.60
2018-04-15T00:31:30.866Z,40.73
2018-04-15T00:33:57.261Z,40.80
2018-04-15T00:36:23.489Z,40.47
2018-04-15T00:38:50.439Z,38.90
2018-04-15T00:41:16.711Z,39.83
2018-04-15T00:43:49.782Z,40.00
2018-04-15T00:46:16.010Z,41.47
2018-04-15T00:48:42.333Z,37.23
2018-04-15T00:51:08.575Z,38.17
2018-04-15T00:53:47.321Z,43.27
2018-04-15T00:56:13.618Z,42.80
2018-04-15T00:58:39.979Z,36.63
2018-04-15T01:01:06.249Z,36.90
2018-04-15T01:03:33.480Z,36.60
2018-04-15T01:05:59.747Z,41.43
2018-04-15T01:08:26.713Z,35.43
2018-04-15T01:10:53.735Z,33.33
2018-04-15T01:13:19.979Z,37.43
2018-04-15T01:15:47.705Z,35.30
2018-04-15T01:18:14.004Z,38.43
2018-04-15T01:20:41.183Z,35.20
2018-04-15T01:23:07.430Z,36.13
2018-04-15T01:25:34.474Z,39.60
2018-04-15T01:28:00.708Z,38.50
2018-04-15T01:30:26.985Z,38.73
2018-04-15T01:32:53.254Z,38.40
2018-04-15T01:35:19.487Z,36.80
2018-04-15T01:37:45.724Z,40.90
2018-04-15T01:40:11.994Z,37.43
2018-04-15T01:42:38.193Z,37.00
2018-04-15T01:45:05.166Z,40.63
2018-04-15T01:47:31.405Z,38.23
2018-04-15T01:49:57.653Z,43.07
2018-04-15T01:52:23.868Z,37.80
2018-04-15T01:54:50.843Z,37.50
2018-04-15T01:57:17.059Z,35.67
2018-04-15T01:59:43.324Z,36.70
2018-04-15T02:02:09.575Z,38.10
2018-04-15T02:04:35.837Z,37.27
2018-04-15T02:07:02.073Z,40.10
2018-04-15T02:09:28.314Z,40.87
2018-04-15T02:11:54.526Z,40.70
2018-04-15T02:14:20.762Z,43.77
2018-04-15T02:16:47.023Z,38.83
2018-04-15T02:19:13.345Z,41.43
2018-04-15T02:21:39.595Z,39.23
2018-04-15T02:24:05.848Z,41.23
2018-04-15T02:26:32.820Z,45.83
2018-04-15T02:28:59.054Z,36.70
2018-04-15T02:31:25.320Z,38.87
2018-04-15T02:33:51.559Z,41.07
2018-04-15T02:36:17.839Z,38.10
2018-04-15T02:38:44.174Z,45.23
2018-04-15T02:41:11.955Z,40.67
2018-04-15T02:43:38.194Z,43.67
2018-04-15T02:46:04.621Z,41.77
2018-04-15T02:48:30.877Z,39.53
2018-04-15T02:50:57.173Z,38.67
2018-04-15T02:53:23.427Z,41.27
2018-04-15T02:55:49.620Z,40.97
2018-04-15T02:58:16.607Z,37.40
2018-04-15T03:00:43.599Z,40.17
2018-04-15T03:03:09.812Z,39.63
2018-04-15T03:05:36.110Z,41.00
2018-04-15T03:08:02.347Z,38.50
2018-04-15T03:10:28.640Z,38.77
2018-04-15T03:12:54.856Z,38.47
2018-04-15T03:15:21.820Z,42.70
2018-04-15T03:17:48.089Z,43.43
2018-04-15T03:20:14.347Z,46.47
2018-04-15T03:22:41.602Z,41.87
2018-04-15T03:25:07.799Z,44.87
2018-04-15T03:27:34.786Z,44.10
2018-04-15T03:30:01.160Z,45.27
2018-04-15T03:32:27.382Z,46.67
2018-04-15T03:34:53.591Z,47.97
2018-04-15T03:37:20.542Z,42.47
2018-04-15T03:39:47.492Z,49.77
2018-04-15T03:42:14.476Z,48.27
2018-04-15T03:44:40.719Z,50.53
2018-04-15T03:47:06.923Z,46.50
2018-04-15T03:49:41.019Z,45.27
2018-04-15T03:52:07.227Z,51.13
2018-04-15T03:54:33.475Z,49.60
2018-04-15T03:56:59.759Z,51.23
2018-04-15T03:59:26.007Z,48.40
2018-04-15T04:01:53.786Z,52.90
2018-04-15T04:04:20.894Z,51.67
2018-04-15T04:06:47.119Z,51.10
2018-04-15T04:09:13.384Z,50.33
2018-04-15T04:11:39.597Z,44.73
2018-04-15T04:14:05.797Z,49.77
2018-04-15T04:16:32.008Z,48.90
2018-04-15T04:19:10.677Z,49.10
2018-04-15T04:21:49.321Z,47.70
2018-04-15T04:24:27.900Z,46.80
2018-04-15T04:26:54.811Z,43.37
2018-04-15T04:29:21.770Z,45.73
2018-04-15T04:31:48.753Z,42.33
2018-04-15T04:34:14.964Z,45.13
2018-04-15T04:36:41.948Z,44.97
2018-04-15T04:39:08.213Z,41.40
2018-04-15T04:41:34.421Z,42.80
2018-04-15T04:44:00.691Z,40.00
2018-04-15T04:46:33.899Z,43.93
2018-04-15T04:49:00.167Z,39.37
2018-04-15T04:51:33.476Z,41.17
2018-04-15T04:53:59.900Z,39.83
2018-04-15T04:56:26.111Z,39.57
2018-04-15T04:58:52.335Z,37.10
2018-04-15T05:01:19.322Z,35.83
2018-04-15T05:03:45.556Z,39.33
2018-04-15T05:06:11.832Z,36.40
2018-04-15T05:08:38.039Z,37.47
2018-04-15T05:11:04.312Z,35.43
2018-04-15T05:13:30.531Z,36.20
2018-04-15T05:15:56.797Z,33.20
2018-04-15T05:18:22.998Z,33.50
2018-04-15T05:20:49.244Z,30.20
2018-04-15T05:23:15.489Z,28.23
2018-04-15T05:25:41.728Z,25.80
2018-04-15T05:28:07.948Z,24.47
2018-04-15T05:30:34.242Z,28.57
2018-04-15T05:33:00.469Z,24.30
2018-04-15T05:35:26.776Z,23.17
2018-04-15T05:37:53.116Z,19.90
2018-04-15T05:40:19.318Z,21.40
2018-04-15T05:42:45.549Z,21.00
2018-04-15T05:45:11.906Z,17.50
2018-04-15T05:47:38.899Z,19.60
2018-04-15T05:50:05.122Z,20.07
2018-04-15T05:52:32.296Z,17.90
2018-04-15T05:54:58.494Z,17.53
2018-04-15T05:57:24.792Z,17.00
2018-04-15T05:59:51.030Z,15.27
2018-04-15T06:02:17.235Z,15.27
2018-04-15T06:04:44.242Z,15.60
2018-04-15T06:07:10.499Z,15.70
2018-04-15T06:09:36.725Z,14.67
2018-04-15T06:12:10.126Z,12.93
2018-04-15T06:14:36.385Z,13.13
2018-04-15T06:17:02.601Z,13.93
2018-04-15T06:19:28.825Z,11.80
2018-04-15T06:21:55.773Z,11.07
2018-04-15T06:24:22.749Z,13.03
2018-04-15T06:26:48.982Z,12.17
2018-04-15T06:29:15.250Z,9.90
2018-04-15T06:31:41.577Z,10.20
2018-04-15T06:34:07.819Z,11.10
2018-04-15T06:36:34.024Z,9.90
2018-04-15T06:39:00.229Z,12.40
2018-04-15T06:41:26.505Z,9.97
2018-04-15T06:43:53.500Z,9.77
2018-04-15T06:46:19.718Z,7.97
2018-04-15T06:48:46.026Z,9.37
2018-04-15T06:51:12.282Z,8.97
2018-04-15T06:53:39.249Z,9.00
2018-04-15T06:56:05.529Z,6.63
2018-04-15T06:58:31.773Z,10.27
2018-04-15T07:00:58.098Z,10.93
2018-04-15T07:03:25.071Z,7.67
2018-04-15T07:05:51.392Z,6.67
2018-04-15T07:08:17.871Z,6.33
2018-04-15T07:10:44.353Z,7.13
2018-04-15T07:13:10.785Z,6.83
2018-04-15T07:15:44.138Z,7.37
2018-04-15T07:18:11.724Z,7.23
2018-04-15T07:20:37.959Z,5.70
2018-04-15T07:23:04.209Z,5.67
2018-04-15T07:25:30.459Z,5.00
2018-04-15T07:27:57.043Z,4.80
2018-04-15T07:30:23.301Z,4.50
2018-04-15T07:32:49.602Z,4.23
2018-04-15T07:35:15.841Z,4.30
2018-04-15T07:37:42.367Z,4.07
2018-04-15T07:40:08.669Z,4.43
2018-04-15T07:42:35.653Z,4.20
2018-04-15T07:45:03.382Z,5.20
2018-04-15T07:47:30.834Z,4.40
2018-04-15T07:49:57.310Z,4.07
2018-04-15T07:52:23.598Z,3.80
2018-04-15T07:54:49.873Z,3.10
2018-04-15T07:57:16.119Z,3.23
2018-04-15T07:59:42.640Z,4.03
2018-04-15T08:02:10.501Z,3.70
2018-04-15T08:04:36.730Z,3.50
2018-04-15T08:07:04.101Z,3.40
2018-04-15T08:09:30.488Z,3.20
2018-04-15T08:11:56.815Z,3.90
2018-04-15T08:14:23.075Z,3.73
2018-04-15T08:16:49.243Z,4.33
2018-04-15T08:19:17.059Z,4.30
2018-04-15T08:21:43.509Z,3.37
2018-04-15T08:24:09.727Z,3.97
2018-04-15T08:26:36.092Z,3.37
2018-04-15T08:29:02.747Z,3.40
2018-04-15T08:31:29.094Z,3.77
2018-04-15T08:33:55.452Z,3.17
2018-04-15T08:36:22.512Z,2.90
2018-04-15T08:38:48.755Z,2.77
2018-04-15T08:41:14.947Z,2.90
2018-04-15T08:43:41.292Z,2.73
2018-04-15T08:46:07.920Z,2.80
2018-04-15T08:48:34.388Z,3.00
2018-04-15T08:51:01.470Z,3.40
2018-04-15T08:53:27.730Z,2.83
2018-04-15T08:55:54.210Z,4.00
2018-04-15T08:58:20.508Z,3.13
2018-04-15T09:00:46.751Z,3.73
2018-04-15T09:03:13.426Z,3.13
2018-04-15T09:05:39.663Z,2.33
2018-04-15T09:08:05.932Z,2.43
2018-04-15T09:10:32.126Z,2.43
2018-04-15T09:12:58.580Z,3.10
2018-04-15T09:15:24.804Z,2.70
2018-04-15T09:17:51.006Z,2.60
2018-04-15T09:20:17.200Z,3.03
2018-04-15T09:22:43.406Z,2.70
2018-04-15T09:25:10.341Z,2.90
2018-04-15T09:27:36.558Z,3.00
2018-04-15T09:30:04.367Z,2.30
2018-04-15T09:32:30.646Z,2.63
2018-04-15T09:34:56.856Z,2.73
2018-04-15T09:37:23.069Z,4.03
2018-04-15T09:39:50.043Z,2.33
2018-04-15T09:42:16.417Z,2.50
2018-04-15T09:44:42.681Z,2.87
2018-04-15T09:47:08.992Z,2.90
2018-04-15T09:49:35.159Z,2.33
2018-04-15T09:52:01.336Z,2.70
2018-04-15T09:54:27.579Z,2.70
2018-04-15T09:56:53.779Z,2.20
2018-04-15T09:59:19.978Z,3.33
2018-04-15T10:01:47.269Z,2.23
2018-04-15T10:04:14.263Z,1.93
2018-04-15T10:06:41.879Z,2.33
2018-04-15T10:09:08.136Z,2.30
2018-04-15T10:11:34.715Z,2.07
2018-04-15T10:14:01.027Z,2.90
2018-04-15T10:16:27.317Z,3.93
2018-04-15T10:18:53.556Z,3.03
2018-04-15T10:21:19.759Z,2.10
2018-04-15T10:23:46.007Z,2.43
2018-04-15T10:26:12.196Z,2.50
2018-04-15T10:28:39.163Z,2.33
2018-04-15T10:31:05.437Z,2.30
2018-04-15T10:33:32.093Z,2.40
2018-04-15T10:35:58.343Z,1.97
2018-04-15T10:38:24.574Z,2.33
2018-04-15T10:40:50.763Z,1.93
2018-04-15T10:43:17.963Z,1.83
2018-04-15T10:45:44.326Z,1.70
2018-04-15T10:48:11.063Z,2.60
2018-04-15T10:50:37.284Z,2.20
2018-04-15T10:53:03.743Z,2.33
2018-04-15T10:55:29.954Z,1.70
2018-04-15T10:57:56.870Z,3.23
2018-04-15T11:00:23.069Z,1.83
2018-04-15T11:02:49.993Z,3.87
2018-04-15T11:05:16.818Z,2.03
2018-04-15T11:07:44.213Z,2.40
2018-04-15T11:10:10.700Z,1.63
2018-04-15T11:12:37.425Z,2.00
2018-04-15T11:15:04.651Z,1.90
2018-04-15T11:17:31.166Z,1.60
2018-04-15T11:19:57.997Z,1.73
2018-04-15T11:22:25.147Z,2.10
2018-04-15T11:24:52.103Z,1.97
2018-04-15T11:27:18.315Z,1.90
2018-04-15T11:29:44.558Z,2.60
2018-04-15T11:32:10.781Z,1.73
2018-04-15T11:34:36.979Z,2.00
2018-04-15T11:37:03.960Z,1.80
2018-04-15T11:39:30.203Z,1.87
2018-04-15T11:41:56.603Z,2.43
2018-04-15T11:44:23.214Z,1.70
2018-04-15T11:46:49.494Z,1.80
2018-04-15T11:49:15.686Z,2.30
2018-04-15T11:51:42.365Z,3.07
2018-04-15T11:54:08.819Z,2.43
2018-04-15T11:56:35.094Z,2.13
2018-04-15T11:59:01.343Z,2.20
2018-04-15T12:01:28.219Z,2.80
2018-04-15T12:03:54.443Z,3.33
2018-04-15T12:06:21.446Z,4.10
2018-04-15T12:08:47.651Z,1.50
2018-04-15T12:11:13.911Z,1.90
2018-04-15T12:13:40.206Z,2.00
2018-04-15T12:16:06.548Z,2.20
2018-04-15T12:18:32.802Z,2.57
2018-04-15T12:20:58.979Z,2.20
2018-04-15T12:23:25.194Z,2.70
2018-04-15T12:25:52.128Z,2.07
2018-04-15T12:28:18.418Z,2.27
2018-04-15T12:30:44.623Z,2.97
2018-04-15T12:33:12.127Z,4.63
2018-04-15T12:35:39.399Z,2.20
2018-04-15T12:38:06.372Z,2.10
2018-04-15T12:40:32.706Z,2.50
2018-04-15T12:42:58.915Z,2.23
2018-04-15T12:45:25.123Z,2.73
2018-04-15T12:47:51.653Z,2.53
2018-04-15T12:50:18.116Z,2.40
2018-04-15T12:52:45.121Z,2.70
2018-04-15T12:55:11.659Z,2.67
2018-04-15T12:57:38.041Z,2.57
2018-04-15T13:00:04.246Z,2.20
2018-04-15T13:02:31.190Z,2.90
2018-04-15T13:04:57.557Z,2.93
2018-04-15T13:07:23.801Z,14.73
2018-04-15T13:09:50.828Z,3.77
2018-04-15T13:12:17.216Z,3.17
2018-04-15T13:14:43.466Z,2.50
2018-04-15T13:17:09.662Z,3.17
2018-04-15T13:19:35.875Z,5.03
2018-04-15T13:22:02.416Z,2.53
2018-04-15T13:24:28.647Z,2.60
2018-04-15T13:26:54.887Z,2.87
2018-04-15T13:29:21.120Z,3.83
2018-04-15T13:31:47.314Z,3.03
2018-04-15T13:34:14.305Z,3.00
2018-04-15T13:36:40.514Z,3.43
2018-04-15T13:39:07.471Z,3.77
2018-04-15T13:41:33.844Z,3.53
2018-04-15T13:44:00.129Z,3.13
2018-04-15T13:46:26.298Z,3.40
2018-04-15T13:48:53.282Z,2.43
2018-04-15T13:51:20.196Z,3.33
2018-04-15T13:53:46.370Z,3.30
2018-04-15T13:56:12.551Z,2.60
2018-04-15T13:58:38.748Z,3.30
2018-04-15T14:01:06.839Z,2.80
2018-04-15T14:03:33.174Z,2.80
2018-04-15T14:05:59.377Z,3.13
2018-04-15T14:08:25.533Z,3.30
2018-04-15T14:10:52.496Z,3.63
2018-04-15T14:13:18.710Z,3.00
2018-04-15T14:15:44.969Z,3.10
2018-04-15T14:18:13.299Z,2.63
2018-04-15T14:20:39.876Z,3.00
2018-04-15T14:23:06.206Z,3.23
2018-04-15T14:25:32.533Z,2.70
2018-04-15T14:27:58.692Z,2.77
2018-04-15T14:30:24.996Z,3.20
2018-04-15T14:32:51.251Z,3.27
2018-04-15T14:35:17.490Z,3.10
2018-04-15T14:37:43.693Z,3.43
2018-04-15T14:40:09.904Z,2.03
2018-04-15T19:33:45.186Z,3.73
2018-04-15T19:36:11.451Z,3.77
2018-04-15T19:38:37.653Z,4.33
2018-04-15T19:41:03.877Z,4.50
2018-04-15T19:43:30.117Z,3.90
2018-04-15T19:45:57.038Z,4.80
2018-04-15T19:48:23.424Z,3.90
2018-04-15T19:50:50.407Z,3.70
2018-04-15T19:53:16.678Z,4.67
2018-04-15T19:55:43.109Z,4.23
2018-04-15T19:58:09.362Z,5.07
2018-04-15T20:00:35.584Z,4.97
2018-04-15T20:03:01.843Z,4.93
2018-04-15T20:05:28.192Z,4.77
2018-04-15T20:07:54.401Z,4.40
2018-04-15T20:10:20.652Z,5.30
2018-04-15T20:12:46.822Z,5.17
2018-04-15T20:15:13.004Z,4.87
2018-04-15T20:17:39.970Z,4.67
2018-04-15T20:20:06.231Z,5.30
2018-04-15T20:22:39.295Z,5.10
2018-04-15T20:25:05.631Z,4.60
2018-04-15T20:27:32.590Z,6.97
2018-04-15T20:29:58.781Z,5.23
2018-04-15T20:32:25.002Z,5.50
2018-04-15T20:34:52.011Z,5.33
2018-04-15T20:37:25.129Z,5.03
2018-04-15T20:39:51.342Z,5.23
2018-04-15T20:42:17.594Z,5.83
2018-04-15T20:44:44.355Z,5.00
2018-04-15T20:47:11.334Z,4.80
2018-04-15T20:49:38.324Z,5.13
2018-04-15T20:52:04.502Z,5.20
2018-04-15T20:54:30.674Z,5.47
2018-04-15T20:56:56.908Z,5.43
2018-04-15T20:59:24.819Z,5.33
2018-04-15T21:01:51.098Z,5.27
2018-04-15T21:04:17.282Z,7.43
2018-04-15T21:06:43.583Z,5.53
2018-04-15T21:09:09.820Z,5.63
2018-04-15T21:11:35.980Z,5.53
2018-04-15T21:14:03.187Z,5.73
2018-04-15T21:16:29.481Z,5.27
2018-04-15T21:18:55.657Z,5.70
2018-04-15T21:21:21.852Z,6.60
2018-04-15T21:23:48.047Z,5.63
2018-04-15T21:26:16.494Z,5.93
2018-04-15T21:28:43.604Z,5.70
2018-04-15T21:31:09.771Z,7.47
2018-04-15T21:33:36.000Z,7.80
2018-04-15T21:36:02.229Z,5.57
2018-04-15T21:38:28.430Z,5.73
2018-04-15T21:40:55.343Z,6.17
2018-04-15T21:43:21.708Z,7.90
2018-04-15T21:45:47.887Z,6.37
2018-04-15T21:48:14.126Z,6.23
2018-04-15T21:50:41.234Z,5.70
2018-04-15T21:53:07.991Z,5.90
2018-04-15T21:55:34.187Z,10.73
2018-04-15T21:58:00.381Z,5.40
2018-04-15T22:00:27.294Z,5.83
2018-04-15T22:02:53.544Z,6.80
2018-04-15T22:05:19.886Z,7.27
2018-04-15T22:07:46.038Z,8.17
2018-04-15T22:10:12.985Z,7.40
2018-04-15T22:12:39.183Z,8.50
2018-04-15T22:15:06.125Z,7.53
2018-04-15T22:17:32.299Z,5.83
2018-04-15T22:19:58.486Z,5.17
2018-04-15T22:22:24.643Z,5.90
2018-04-15T22:24:51.015Z,5.60
2018-04-15T22:27:17.233Z,6.20
2018-04-15T22:29:44.180Z,6.37
2018-04-15T22:32:11.171Z,5.50
2018-04-15T22:34:37.379Z,5.73
2018-04-15T22:37:03.631Z,6.77
2018-04-15T22:39:29.858Z,6.03
2018-04-15T22:41:56.039Z,6.17
2018-04-15T22:44:22.255Z,5.93
2018-04-15T22:46:49.219Z,5.83
2018-04-15T22:49:21.498Z,6.20
2018-04-15T22:51:47.673Z,6.77
2018-04-15T22:54:13.851Z,5.77
2018-04-15T22:56:44.104Z,6.23
2018-04-15T22:59:11.079Z,7.17
2018-04-15T23:01:37.262Z,6.80
2018-04-15T23:04:04.248Z,6.10
2018-04-15T23:06:30.487Z,5.37
2018-04-15T23:08:56.806Z,5.67
2018-04-15T23:11:23.766Z,6.60
2018-04-15T23:13:50.705Z,5.87
2018-04-15T23:16:17.757Z,5.73
2018-04-15T23:18:44.032Z,6.40
2018-04-15T23:21:11.224Z,5.70
2018-04-15T23:23:37.437Z,5.67
2018-04-15T23:26:03.662Z,5.70
2018-04-15T23:28:37.576Z,8.03
2018-04-15T23:31:03.800Z,5.60
2018-04-15T23:33:30.013Z,5.77
2018-04-15T23:35:56.245Z,5.63
2018-04-15T23:38:22.455Z,6.00
2018-04-15T23:40:49.396Z,5.43
2018-04-15T23:43:15.971Z,6.60
2018-04-15T23:45:42.293Z,6.03
2018-04-15T23:48:16.251Z,5.90
2018-04-15T23:50:42.502Z,5.80
2018-04-15T23:53:08.808Z,5.50
2018-04-15T23:55:35.231Z,5.43
2018-04-15T23:58:01.658Z,5.30
